Time;durP1;ratioP1;P1;durP2;ratioP2;P2;SDS_P1;SDS_P2;PMS_P1;PMS_P2;Temp;Humidity;BMP_temperature;BMP_pressure;BME280_temperature;BME280_humidity;BME280_pressure;Samples;Min_cycle;Max_cycle;Signal;HPM_P1;HPM_P2
2021/04/25 00:00:45;;;;;;;0.50;0.43;;;;;;;2.43;84.16;101419.69;5070633;28;20257;-77
2021/04/25 00:03:11;;;;;;;1.60;1.50;;;;;;;2.43;84.44;101417.81;5070421;28;20182;-78
2021/04/25 00:05:36;;;;;;;0.10;0.10;;;;;;;2.39;84.40;101414.75;5070401;28;20185;-74
2021/04/25 00:08:02;;;;;;;4.00;0.57;;;;;;;2.41;84.67;101408.31;5070451;28;20213;-76
2021/04/25 00:10:27;;;;;;;2.23;1.20;;;;;;;2.39;84.58;101413.94;5070333;28;20181;-77
2021/04/25 00:12:52;;;;;;;1.27;1.03;;;;;;;2.33;84.86;101410.31;5068963;28;20178;-75
2021/04/25 00:15:23;;;;;;;0.63;0.53;;;;;;;2.32;85.12;101414.06;5070424;28;20184;-75
2021/04/25 00:17:49;;;;;;;2.47;0.33;;;;;;;2.28;84.91;101407.47;5070456;28;20537;-74
2021/04/25 00:20:16;;;;;;;0.53;0.17;;;;;;;2.25;85.51;101401.72;5070313;28;20190;-79
2021/04/25 00:22:42;;;;;;;0.90;0.70;;;;;;;2.24;85.62;101400.09;5070279;28;20235;-77
2021/04/25 00:25:09;;;;;;;0.27;0.27;;;;;;;2.21;85.41;101409.47;5070433;28;20203;-75
2021/04/25 00:27:34;;;;;;;0.40;0.30;;;;;;;2.16;85.79;101408.50;5069306;28;20648;-76
2021/04/25 00:30:00;;;;;;;3.00;0.87;;;;;;;2.12;85.98;101407.34;5070216;28;20260;-79
2021/04/25 00:32:26;;;;;;;0.63;0.63;;;;;;;2.06;86.58;101403.72;5070111;28;20201;-73
2021/04/25 00:34:52;;;;;;;0.40;0.40;;;;;;;2.03;86.42;101407.69;5070275;28;20170;-76
2021/04/25 00:37:17;;;;;;;1.00;0.90;;;;;;;2.03;86.38;101390.69;5070138;28;20918;-75
2021/04/25 00:39:42;;;;;;;8.90;0.93;;;;;;;2.04;86.25;101392.34;5070124;28;20228;-73
2021/04/25 00:42:08;;;;;;;0.77;0.43;;;;;;;1.99;86.87;101398.41;5070024;28;20186;-74
2021/04/25 00:44:33;;;;;;;1.00;0.50;;;;;;;1.95;86.75;101399.94;5070023;28;20170;-76
2021/04/25 00:46:59;;;;;;;1.50;0.63;;;;;;;1.93;86.83;101403.91;5069959;28;20787;-75
2021/04/25 00:49:24;;;;;;;0.60;0.60;;;;;;;1.92;87.10;101388.78;5070054;28;20214;-78
2021/04/25 00:51:49;;;;;;;9.27;1.23;;;;;;;1.87;87.11;101396.72;5070011;28;20707;-77
2021/04/25 00:54:15;;;;;;;0.40;0.40;;;;;;;1.83;87.10;101387.47;5069865;28;20221;-79
2021/04/25 00:56:41;;;;;;;0.40;0.40;;;;;;;1.76;87.32;101385.72;5073022;28;20648;-78
2021/04/25 00:59:06;;;;;;;0.40;0.40;;;;;;;1.72;87.99;101389.88;5073473;28;20181;-78
2021/04/25 01:01:32;;;;;;;0.27;0.27;;;;;;;1.67;88.06;101387.06;5073508;28;20183;-74
2021/04/25 01:03:57;;;;;;;4.13;0.83;;;;;;;1.63;88.52;101385.91;5073348;28;20186;-78
2021/04/25 01:06:23;;;;;;;0.10;0.10;;;;;;;1.60;88.34;101389.06;5073428;28;20190;-77
2021/04/25 01:08:48;;;;;;;0.53;0.53;;;;;;;1.60;88.80;101385.53;5073455;28;20202;-78
2021/04/25 01:11:15;;;;;;;0.53;0.53;;;;;;;1.61;88.58;101387.19;5073393;28;20203;-77
2021/04/25 01:13:40;;;;;;;1.40;1.07;;;;;;;1.59;88.61;101389.25;5073180;28;20296;-75
2021/04/25 01:16:06;;;;;;;0.37;0.37;;;;;;;1.55;88.47;101388.91;5073285;28;20705;-77
2021/04/25 01:18:32;;;;;;;0.27;0.27;;;;;;;1.53;88.47;101384.78;5073285;28;20228;-76
2021/04/25 01:21:00;;;;;;;0.93;0.93;;;;;;;1.49;89.09;101387.94;5073212;28;20175;-76
2021/04/25 01:23:25;;;;;;;0.10;0.10;;;;;;;1.48;88.88;101382.78;5073089;28;20455;-77
2021/04/25 01:25:51;;;;;;;0.00;0.00;;;;;;;1.51;89.25;101386.91;5073107;28;20413;-76
2021/04/25 01:28:16;;;;;;;0.80;0.40;;;;;;;1.54;88.91;101389.94;5073052;28;20209;-76
2021/04/25 01:30:42;;;;;;;2.43;0.30;;;;;;;1.58;89.11;101385.75;5072903;28;20171;-74
2021/04/25 01:33:07;;;;;;;1.27;0.57;;;;;;;1.58;89.06;101391.13;5073191;28;20178;-74
2021/04/25 01:35:33;;;;;;;0.87;0.73;;;;;;;1.60;88.37;101385.53;5072981;28;20171;-76
2021/04/25 01:37:58;;;;;;;0.60;0.50;;;;;;;1.59;88.40;101384.72;5072848;28;20437;-76
2021/04/25 01:40:30;;;;;;;1.40;1.30;;;;;;;1.59;88.32;101384.72;5071424;28;20244;-74
2021/04/25 01:42:56;;;;;;;1.00;0.73;;;;;;;1.61;88.10;101384.50;5072725;28;20257;-76
2021/04/25 01:45:22;;;;;;;0.83;0.57;;;;;;;1.61;88.22;101381.78;5072843;28;20202;-75
2021/04/25 01:47:51;;;;;;;7.77;1.43;;;;;;;1.59;88.14;101389.25;5072680;28;20194;-76
2021/04/25 01:50:18;;;;;;;0.97;0.97;;;;;;;1.56;87.89;101390.53;5072768;28;20206;-78
2021/04/25 01:52:44;;;;;;;1.73;1.50;;;;;;;1.54;88.33;101389.94;5072678;28;20424;-72
2021/04/25 01:55:11;;;;;;;0.70;0.70;;;;;;;1.53;88.12;101384.78;5072519;28;20779;-75
2021/04/25 01:57:36;;;;;;;0.70;0.70;;;;;;;1.52;87.91;101389.34;5072590;28;20206;-74
2021/04/25 02:00:06;;;;;;;0.80;0.60;;;;;;;1.51;88.30;101392.28;5072491;28;20538;-77
2021/04/25 02:02:31;;;;;;;1.93;1.77;;;;;;;1.51;88.00;101382.34;5072313;28;20229;-78
2021/04/25 02:04:57;;;;;;;0.60;0.60;;;;;;;1.47;88.15;101386.53;5072439;28;20178;-74
2021/04/25 02:07:22;;;;;;;5.00;0.67;;;;;;;1.46;87.87;101385.72;5072322;28;20200;-75
2021/04/25 02:09:47;;;;;;;0.23;0.23;;;;;;;1.47;88.06;101394.63;5072158;28;20171;-76
2021/04/25 02:12:14;;;;;;;0.47;0.47;;;;;;;1.44;87.82;101392.34;5072249;28;20205;-78
2021/04/25 02:14:40;;;;;;;1.20;1.20;;;;;;;1.42;88.38;101392.59;5072198;28;20177;-75
2021/04/25 02:17:05;;;;;;;2.73;0.60;;;;;;;1.44;87.63;101387.78;5072231;28;20426;-74
2021/04/25 02:19:31;;;;;;;0.13;0.07;;;;;;;1.47;87.64;101391.91;5072153;28;20281;-74
2021/04/25 02:21:56;;;;;;;3.80;1.83;;;;;;;1.45;88.26;101394.03;5072254;28;20185;-73
2021/04/25 02:24:21;;;;;;;0.20;0.20;;;;;;;1.43;87.68;101396.09;5074334;28;20174;-71
2021/04/25 02:26:46;;;;;;;0.50;0.50;;;;;;;1.44;88.11;101403.13;5073310;28;20549;-71
2021/04/25 02:29:12;;;;;;;1.13;0.97;;;;;;;1.43;88.19;101396.09;5070784;28;20304;-70
2021/04/25 02:31:37;;;;;;;1.27;1.27;;;;;;;1.45;87.67;101399.41;5071770;28;20170;-71
2021/04/25 02:34:03;;;;;;;1.10;1.10;;;;;;;1.44;87.89;101397.75;5071696;28;20617;-70
2021/04/25 02:36:29;;;;;;;0.50;0.50;;;;;;;1.45;87.83;101400.22;5071611;28;20163;-70
2021/04/25 02:38:54;;;;;;;0.63;0.47;;;;;;;1.44;87.28;101395.88;5071595;28;20990;-71
2021/04/25 02:41:20;;;;;;;9.27;1.97;;;;;;;1.41;87.35;101403.59;5071666;28;20258;-71
2021/04/25 02:43:45;;;;;;;6.07;1.13;;;;;;;1.40;87.39;101402.75;5071464;28;20621;-71
2021/04/25 02:46:10;;;;;;;0.83;0.77;;;;;;;1.37;87.23;101402.41;5070235;28;20186;-70
2021/04/25 02:48:35;;;;;;;0.97;0.97;;;;;;;1.36;87.37;101400.75;5071377;28;20174;-70
2021/04/25 02:51:01;;;;;;;0.93;0.30;;;;;;;1.32;87.22;101396.88;5071396;28;20185;-71
2021/04/25 02:53:26;;;;;;;1.00;0.53;;;;;;;1.32;87.66;101399.56;5071339;28;20174;-71
2021/04/25 02:55:51;;;;;;;0.90;0.50;;;;;;;1.33;87.41;101412.00;5071356;28;20285;-71
2021/04/25 02:58:17;;;;;;;0.60;0.60;;;;;;;1.29;87.56;101408.09;5071420;28;20313;-73
2021/04/25 03:00:42;;;;;;;2.70;1.73;;;;;;;1.31;87.53;101403.31;5071285;28;20648;-70
2021/04/25 03:03:08;;;;;;;1.10;0.80;;;;;;;1.28;87.41;101406.44;5071045;28;20288;-71
2021/04/25 03:05:33;;;;;;;0.57;0.57;;;;;;;1.30;87.53;101412.41;5071100;28;20255;-71
2021/04/25 03:07:59;;;;;;;16.67;1.20;;;;;;;1.28;87.66;101409.13;5071149;28;20178;-71
2021/04/25 03:10:25;;;;;;;1.80;0.83;;;;;;;1.28;87.32;101409.13;5071107;28;20182;-71
2021/04/25 03:12:51;;;;;;;5.17;0.97;;;;;;;1.25;87.40;101412.28;5071004;28;20249;-71
2021/04/25 03:15:19;;;;;;;0.40;0.40;;;;;;;1.26;87.33;101405.84;5071117;28;20249;-70
2021/04/25 03:17:46;;;;;;;0.60;0.60;;;;;;;1.23;87.78;101403.63;5070540;28;20271;-71
2021/04/25 03:20:13;;;;;;;1.07;0.73;;;;;;;1.21;87.99;101413.78;5071325;28;20888;-71
2021/04/25 03:22:38;;;;;;;0.43;0.43;;;;;;;1.16;87.88;101415.28;5070797;28;20424;-70
2021/04/25 03:25:06;;;;;;;0.30;0.30;;;;;;;1.11;88.07;101412.44;5070906;28;20417;-70
2021/04/25 03:27:32;;;;;;;0.20;0.20;;;;;;;1.05;88.11;101412.53;5070938;28;20580;-71
2021/04/25 03:29:57;;;;;;;0.83;0.43;;;;;;;0.98;88.57;101407.19;5070752;28;20440;-71
2021/04/25 03:32:23;;;;;;;0.10;0.10;;;;;;;0.96;88.91;101406.59;5070704;28;20249;-70
2021/04/25 03:34:48;;;;;;;0.63;0.63;;;;;;;0.87;88.64;101406.09;5070958;28;20171;-73
2021/04/25 03:37:14;;;;;;;5.53;1.27;;;;;;;0.83;89.06;101406.75;5070852;28;20198;-71
2021/04/25 03:39:39;;;;;;;1.90;1.80;;;;;;;0.77;89.19;101408.47;5070965;28;20244;-70
2021/04/25 03:42:05;;;;;;;0.47;0.47;;;;;;;0.70;89.52;101410.41;5070751;28;20174;-70
2021/04/25 03:44:30;;;;;;;1.10;1.10;;;;;;;0.69;89.64;101407.94;5070613;28;20170;-70
2021/04/25 03:46:56;;;;;;;1.50;0.90;;;;;;;0.68;90.23;101408.97;5070639;28;20201;-71
2021/04/25 03:49:22;;;;;;;0.23;0.23;;;;;;;0.67;90.64;101413.53;5070505;28;20186;-71
2021/04/25 03:51:48;;;;;;;0.30;0.30;;;;;;;0.61;90.27;101416.31;5070936;28;20174;-70
2021/04/25 03:54:15;;;;;;;0.43;0.40;;;;;;;0.56;90.27;101415.06;5070578;28;20504;-71
2021/04/25 03:56:41;;;;;;;1.23;0.87;;;;;;;0.59;90.86;101411.97;5070697;28;20170;-70
2021/04/25 03:59:06;;;;;;;0.00;0.00;;;;;;;0.55;90.41;101418.81;5070468;28;20460;-71
2021/04/25 04:01:31;;;;;;;2.20;1.13;;;;;;;0.51;90.57;101420.31;5070366;28;20630;-71
2021/04/25 04:03:57;;;;;;;1.10;1.00;;;;;;;0.51;90.77;101420.31;5070428;28;20249;-71
2021/04/25 04:06:22;;;;;;;1.87;0.60;;;;;;;0.55;91.17;101407.22;5070608;28;20179;-70
2021/04/25 04:08:48;;;;;;;5.00;0.77;;;;;;;0.52;91.25;101413.06;5070469;28;20174;-71
2021/04/25 04:11:13;;;;;;;1.13;0.87;;;;;;;0.55;91.22;101416.13;5070464;28;20178;-71
2021/04/25 04:13:39;;;;;;;1.50;0.53;;;;;;;0.55;91.62;101416.13;5070279;28;20694;-73
2021/04/25 04:16:05;;;;;;;0.27;0.27;;;;;;;0.56;91.24;101423.13;5070290;28;20181;-71
2021/04/25 04:18:30;;;;;;;0.67;0.27;;;;;;;0.57;91.06;101426.66;5070320;28;20206;-70
2021/04/25 04:20:55;;;;;;;0.40;0.40;;;;;;;0.58;91.51;101428.31;5070390;28;20669;-71
2021/04/25 04:23:22;;;;;;;0.60;0.60;;;;;;;0.61;91.38;101422.50;5070144;28;20171;-71
2021/04/25 04:25:47;;;;;;;0.53;0.53;;;;;;;0.63;91.51;101427.66;5070317;28;20231;-70
2021/04/25 04:28:13;;;;;;;0.33;0.33;;;;;;;0.66;91.64;101424.50;5070356;28;20944;-71
2021/04/25 04:30:38;;;;;;;0.90;0.87;;;;;;;0.67;91.56;101429.66;5071553;28;20170;-71
2021/04/25 04:33:03;;;;;;;0.87;0.60;;;;;;;0.66;91.03;101419.13;5073995;28;20707;-72
2021/04/25 04:35:29;;;;;;;2.83;2.63;;;;;;;0.70;91.65;101428.41;5073986;28;20162;-73
2021/04/25 04:37:54;;;;;;;0.30;0.23;;;;;;;0.74;91.13;101417.00;5074180;28;20240;-72
2021/04/25 04:40:20;;;;;;;0.30;0.30;;;;;;;0.81;91.03;101422.28;5074020;28;20664;-74
2021/04/25 04:42:46;;;;;;;0.60;0.60;;;;;;;0.84;90.46;101411.91;5073730;28;20170;-73
2021/04/25 04:45:13;;;;;;;0.30;0.30;;;;;;;0.87;90.78;101418.72;5073965;28;20264;-71
2021/04/25 04:47:41;;;;;;;1.60;0.43;;;;;;;0.90;91.05;101420.97;5073781;28;20712;-71
2021/04/25 04:50:07;;;;;;;1.17;0.97;;;;;;;0.94;90.43;101422.16;5073799;28;20441;-71
2021/04/25 04:52:32;;;;;;;0.63;0.63;;;;;;;0.96;90.37;101420.06;5073967;28;20961;-71
2021/04/25 04:54:57;;;;;;;0.87;0.87;;;;;;;0.99;90.17;101422.28;5073666;28;20171;-71
2021/04/25 04:57:23;;;;;;;5.57;0.80;;;;;;;1.03;90.27;101420.81;5073574;28;20538;-72
2021/04/25 04:59:49;;;;;;;0.83;0.83;;;;;;;1.05;89.93;101417.91;5073613;28;20202;-71
2021/04/25 05:02:14;;;;;;;0.80;0.80;;;;;;;1.06;89.73;101420.38;5073381;28;20178;-71
2021/04/25 05:04:40;;;;;;;0.77;0.43;;;;;;;1.10;89.41;101418.88;5073596;28;20369;-71
2021/04/25 05:07:05;;;;;;;9.27;0.40;;;;;;;1.13;89.76;101420.28;5072355;28;20638;-71
2021/04/25 05:09:30;;;;;;;0.57;0.57;;;;;;;1.16;89.40;101422.53;5073454;28;20292;-72
2021/04/25 05:11:56;;;;;;;0.43;0.43;;;;;;;1.20;89.29;101423.72;5073322;28;20181;-79
2021/04/25 05:14:22;;;;;;;4.47;0.60;;;;;;;1.19;88.86;101420.22;5073319;28;20267;-71
2021/04/25 05:16:48;;;;;;;0.60;0.60;;;;;;;1.21;88.83;101421.88;5073405;28;20167;-71
2021/04/25 05:19:13;;;;;;;0.80;0.80;;;;;;;1.22;88.88;101426.19;5073171;28;20460;-72
2021/04/25 05:21:39;;;;;;;2.23;1.37;;;;;;;1.27;88.99;101429.84;5073434;28;20183;-72
2021/04/25 05:24:07;;;;;;;0.00;0.00;;;;;;;1.35;88.58;101432.25;5071742;28;20706;-73
2021/04/25 05:26:32;;;;;;;0.67;0.37;;;;;;;1.46;88.62;101428.78;5073251;28;20177;-71
2021/04/25 05:28:57;;;;;;;1.40;1.10;;;;;;;1.53;88.06;101430.56;5073039;28;20171;-71
2021/04/25 05:31:23;;;;;;;1.17;1.07;;;;;;;1.59;87.48;101430.50;5072955;28;20622;-71
2021/04/25 05:33:48;;;;;;;7.07;3.07;;;;;;;1.67;87.15;101435.56;5073276;28;20621;-72
2021/04/25 05:36:13;;;;;;;1.07;1.00;;;;;;;1.77;87.45;101437.72;5072990;28;20202;-79
2021/04/25 05:38:39;;;;;;;1.53;1.23;;;;;;;1.84;87.01;101429.53;5072912;28;20687;-76
2021/04/25 05:41:04;;;;;;;0.53;0.53;;;;;;;1.91;86.19;101432.97;5072687;28;20604;-72
2021/04/25 05:43:29;;;;;;;1.63;1.53;;;;;;;1.93;85.98;101431.66;5072822;28;20173;-73
2021/04/25 05:45:55;;;;;;;0.43;0.43;;;;;;;1.96;85.48;101435.78;5072777;28;20625;-72
2021/04/25 05:48:20;;;;;;;4.37;0.47;;;;;;;1.98;85.51;101439.88;5072717;28;20265;-74
2021/04/25 05:50:45;;;;;;;1.27;0.50;;;;;;;2.03;85.70;101440.03;5072581;28;20596;-71
2021/04/25 05:53:11;;;;;;;0.40;0.40;;;;;;;2.12;85.67;101437.81;5072478;28;20177;-71
2021/04/25 05:55:36;;;;;;;0.73;0.73;;;;;;;2.22;85.76;101434.56;5072645;28;20181;-71
2021/04/25 05:58:01;;;;;;;0.30;0.30;;;;;;;2.32;84.76;101432.13;5072642;28;20197;-71
2021/04/25 06:00:29;;;;;;;3.63;0.70;;;;;;;2.45;84.52;101441.84;5072583;28;20224;-71
2021/04/25 06:02:55;;;;;;;0.93;0.93;;;;;;;2.61;84.18;101446.56;5072466;28;20212;-70
2021/04/25 06:05:21;;;;;;;0.30;0.30;;;;;;;2.83;83.62;101444.09;5072457;28;20170;-71
2021/04/25 06:07:50;;;;;;;3.43;1.67;;;;;;;2.98;82.38;101453.34;5072717;28;20257;-73
2021/04/25 06:10:18;;;;;;;8.37;1.20;;;;;;;3.14;82.25;101448.28;5072431;28;20167;-72
2021/04/25 06:12:46;;;;;;;1.47;1.37;;;;;;;3.27;81.18;101440.75;5072177;28;20629;-74
2021/04/25 06:15:11;;;;;;;0.50;0.50;;;;;;;3.41;81.54;101445.88;5070911;28;20173;-71
2021/04/25 06:17:36;;;;;;;1.27;0.87;;;;;;;3.54;81.45;101442.91;5072189;28;20175;-72
2021/04/25 06:20:03;;;;;;;2.57;2.00;;;;;;;3.64;81.19;101447.72;5072162;28;20201;-71
2021/04/25 06:22:28;;;;;;;1.47;1.23;;;;;;;3.72;77.90;101444.59;5072188;28;20665;-71
2021/04/25 06:24:54;;;;;;;1.00;0.93;;;;;;;3.80;75.65;101453.16;5072358;28;20175;-74
2021/04/25 06:27:21;;;;;;;1.77;1.27;;;;;;;3.85;74.36;101444.31;5072091;28;20174;-70
2021/04/25 06:29:47;;;;;;;4.07;1.37;;;;;;;3.92;73.20;101446.91;5071902;28;20529;-71
2021/04/25 06:32:12;;;;;;;3.80;1.50;;;;;;;3.98;73.30;101448.63;5070207;28;20178;-71
2021/04/25 06:34:37;;;;;;;1.10;1.00;;;;;;;3.98;72.58;101444.03;5071792;28;20476;-71
2021/04/25 06:37:03;;;;;;;1.97;1.57;;;;;;;4.05;72.85;101458.22;5071797;28;20209;-72
2021/04/25 06:39:28;;;;;;;0.30;0.30;;;;;;;4.03;72.39;101454.09;5071629;28;20202;-72
2021/04/25 06:41:53;;;;;;;1.77;1.67;;;;;;;4.03;72.39;101448.69;5071786;28;20175;-72
2021/04/25 06:44:19;;;;;;;1.00;0.80;;;;;;;3.99;72.72;101453.78;5071958;28;20506;-71
2021/04/25 06:46:45;;;;;;;0.63;0.37;;;;;;;3.99;72.56;101458.38;5071632;28;20175;-71
2021/04/25 06:49:10;;;;;;;0.77;0.50;;;;;;;3.99;72.67;101455.66;5071583;28;20187;-72
2021/04/25 06:51:35;;;;;;;3.03;1.53;;;;;;;3.94;71.45;101456.41;5071732;28;20195;-73
2021/04/25 06:54:01;;;;;;;0.83;0.83;;;;;;;4.01;71.55;101462.47;5068421;28;20183;-75
2021/04/25 06:56:26;;;;;;;0.30;0.30;;;;;;;4.03;72.09;101459.50;5071176;28;20204;-71
2021/04/25 06:58:52;;;;;;;1.53;1.30;;;;;;;4.13;72.46;101465.09;5071224;28;20591;-71
2021/04/25 07:01:17;;;;;;;0.70;0.70;;;;;;;4.16;72.35;101465.44;5071398;28;20189;-71
2021/04/25 07:03:42;;;;;;;6.67;1.23;;;;;;;4.23;71.48;101454.47;5071223;28;20166;-71
2021/04/25 07:06:08;;;;;;;1.70;0.67;;;;;;;4.28;71.71;101465.38;5071612;28;20178;-74
2021/04/25 07:08:33;;;;;;;6.10;1.10;;;;;;;4.33;72.17;101470.03;5071267;28;20174;-70
2021/04/25 07:10:59;;;;;;;1.93;1.60;;;;;;;4.38;70.43;101459.31;5071178;28;20246;-73
2021/04/25 07:13:25;;;;;;;0.47;0.47;;;;;;;4.38;69.78;101470.97;5071118;28;20275;-71
2021/04/25 07:15:50;;;;;;;1.20;0.70;;;;;;;4.48;70.07;101473.00;5070992;28;20254;-72
2021/04/25 07:18:16;;;;;;;0.43;0.43;;;;;;;4.45;68.73;101468.91;5071015;28;20201;-72
2021/04/25 07:20:42;;;;;;;2.33;1.63;;;;;;;4.49;68.44;101477.38;5071207;28;20174;-71
2021/04/25 07:23:07;;;;;;;0.40;0.40;;;;;;;4.57;68.84;101471.53;5071057;28;20626;-74
2021/04/25 07:25:33;;;;;;;0.70;0.70;;;;;;;4.66;68.38;101467.38;5070983;28;20170;-74
2021/04/25 07:27:59;;;;;;;2.03;0.53;;;;;;;4.63;68.25;101469.72;5069569;28;20189;-74
2021/04/25 07:30:26;;;;;;;3.00;0.57;;;;;;;4.70;68.12;101463.09;5069477;28;20565;-72
2021/04/25 07:32:51;;;;;;;3.23;1.33;;;;;;;4.67;67.87;101465.47;5070827;28;20177;-71
2021/04/25 07:35:17;;;;;;;3.17;0.83;;;;;;;4.64;68.68;101465.97;5070767;28;20167;-73
2021/04/25 07:37:44;;;;;;;1.33;0.60;;;;;;;4.68;68.47;101472.53;5070767;28;20209;-71
2021/04/25 07:40:10;;;;;;;2.20;2.10;;;;;;;4.63;68.29;101467.88;5071212;28;20167;-73
2021/04/25 07:42:37;;;;;;;11.27;1.00;;;;;;;4.68;69.44;101470.66;5070508;28;20228;-73
2021/04/25 07:45:04;;;;;;;0.17;0.17;;;;;;;4.72;68.97;101471.78;5071058;28;20231;-72
2021/04/25 07:47:30;;;;;;;0.60;0.60;;;;;;;4.73;67.70;101473.41;5070986;28;20178;-73
2021/04/25 07:49:55;;;;;;;0.37;0.30;;;;;;;4.75;68.41;101478.59;5066671;28;20515;-73
2021/04/25 07:52:21;;;;;;;1.13;0.70;;;;;;;4.81;68.43;101468.66;5065697;28;20178;-71
2021/04/25 07:54:46;;;;;;;0.53;0.53;;;;;;;4.90;68.30;101469.88;5069745;28;20179;-71
2021/04/25 07:57:11;;;;;;;5.30;0.90;;;;;;;4.79;65.54;101474.34;5069209;28;20170;-72
2021/04/25 07:59:37;;;;;;;0.90;0.90;;;;;;;4.92;65.60;101470.44;5069657;28;20652;-77
2021/04/25 08:02:02;;;;;;;2.93;0.60;;;;;;;4.99;66.17;101468.41;5068438;28;20774;-77
2021/04/25 08:04:27;;;;;;;0.37;0.33;;;;;;;5.10;65.94;101470.19;5071849;28;20185;-80
2021/04/25 08:06:53;;;;;;;4.97;0.53;;;;;;;5.11;65.03;101471.81;5073371;28;20170;-76
2021/04/25 08:09:18;;;;;;;3.00;0.50;;;;;;;5.16;64.21;101476.47;5070758;28;20189;-76
2021/04/25 08:11:43;;;;;;;0.73;0.63;;;;;;;5.19;63.73;101471.38;5072885;28;20719;-74
2021/04/25 08:14:09;;;;;;;4.30;0.40;;;;;;;5.21;63.61;101484.69;5074679;28;20179;-77
2021/04/25 08:16:34;;;;;;;0.33;0.33;;;;;;;5.30;62.44;101480.47;5074689;28;20175;-72
2021/04/25 08:19:00;;;;;;;2.43;0.70;;;;;;;5.28;60.87;101474.50;5074431;28;20241;-77
2021/04/25 08:21:30;;;;;;;0.77;0.23;;;;;;;5.43;60.63;101476.56;5074397;28;20174;-81
2021/04/25 08:23:56;;;;;;;0.30;0.30;;;;;;;5.49;59.32;101478.25;5074215;28;20181;-79
2021/04/25 08:26:21;;;;;;;1.87;0.23;;;;;;;5.59;59.39;101479.22;5074131;28;20178;-76
2021/04/25 08:28:47;;;;;;;0.80;0.80;;;;;;;5.62;58.30;101486.84;5074312;28;20177;-79
2021/04/25 08:31:12;;;;;;;0.20;0.20;;;;;;;5.70;57.39;101480.16;5074128;28;20573;-78
2021/04/25 08:33:38;;;;;;;2.90;0.53;;;;;;;5.80;57.67;101491.13;5073471;28;20179;-77
2021/04/25 08:36:05;;;;;;;1.03;0.67;;;;;;;6.00;58.04;101481.59;5073278;28;20174;-77
2021/04/25 08:38:31;;;;;;;0.33;0.30;;;;;;;6.10;58.76;101479.84;5073901;28;20190;-76
2021/04/25 08:40:58;;;;;;;0.87;0.87;;;;;;;6.11;58.79;101480.66;5074282;28;20265;-78
2021/04/25 08:43:24;;;;;;;1.13;0.63;;;;;;;6.12;57.81;101482.28;5073706;28;20181;-81
2021/04/25 08:45:51;;;;;;;0.30;0.30;;;;;;;6.18;58.66;101482.06;5073866;28;20174;-73
2021/04/25 08:48:21;;;;;;;0.27;0.27;;;;;;;6.24;58.97;101485.66;5074366;28;20281;-73
2021/04/25 08:50:47;;;;;;;4.00;2.00;;;;;;;6.29;58.03;101476.75;5076992;28;20170;-73
2021/04/25 08:53:13;;;;;;;0.53;0.53;;;;;;;6.38;61.29;101491.50;5074921;28;20220;-72
2021/04/25 08:55:38;;;;;;;0.73;0.73;;;;;;;6.28;62.16;101486.78;5073835;28;20188;-73
2021/04/25 08:58:05;;;;;;;1.07;0.80;;;;;;;6.27;62.80;101482.44;5073658;28;20280;-73
2021/04/25 09:00:30;;;;;;;1.00;1.00;;;;;;;6.25;63.07;101484.59;5073544;28;20630;-73
2021/04/25 09:02:56;;;;;;;0.50;0.50;;;;;;;6.35;61.14;101479.22;5073292;28;20577;-73
2021/04/25 09:05:23;;;;;;;1.37;1.37;;;;;;;6.40;60.71;101478.47;5073654;28;20167;-75
2021/04/25 09:07:54;;;;;;;1.30;0.47;;;;;;;6.43;59.73;101476.06;5073488;28;20275;-74
2021/04/25 09:10:19;;;;;;;1.23;0.70;;;;;;;6.66;59.11;101477.63;5073506;28;20515;-79
2021/04/25 09:12:45;;;;;;;0.70;0.70;;;;;;;6.43;59.17;101483.38;5073343;28;20204;-74
2021/04/25 09:15:10;;;;;;;1.67;1.47;;;;;;;6.57;59.81;101479.16;5073154;28;20170;-73
2021/04/25 09:17:51;;;;;;;7.83;0.40;;;;;;;6.66;58.57;101471.38;5072519;28;20174;-73
2021/04/25 09:20:31;;;;;;;2.70;0.67;;;;;;;6.72;58.01;101468.41;5073325;28;20205;-76
2021/04/25 09:22:57;;;;;;;2.27;0.60;;;;;;;7.05;57.14;101469.19;5073353;28;20186;-75
2021/04/25 09:25:23;;;;;;;2.23;0.73;;;;;;;7.30;56.14;101480.19;5072798;28;20174;-72
2021/04/25 09:27:51;;;;;;;1.03;0.40;;;;;;;7.14;56.12;101473.03;5072855;28;20230;-72
2021/04/25 09:30:21;;;;;;;0.80;0.30;;;;;;;6.86;56.68;101466.06;5072500;28;20189;-73
2021/04/25 09:32:46;;;;;;;0.17;0.10;;;;;;;6.91;57.94;101470.72;5072463;28;20289;-73
2021/04/25 09:35:17;;;;;;;0.10;0.10;;;;;;;7.08;56.15;101468.66;5072778;28;20329;-73
2021/04/25 09:37:49;;;;;;;0.47;0.47;;;;;;;7.25;56.09;101469.31;5071261;28;20178;-73
2021/04/25 09:40:15;;;;;;;2.17;0.73;;;;;;;7.26;55.77;101468.22;5072661;28;20170;-73
2021/04/25 09:42:59;;;;;;;1.37;0.70;;;;;;;7.30;54.80;101469.34;5072218;28;20651;-73
2021/04/25 09:45:31;;;;;;;0.70;0.70;;;;;;;7.32;54.74;101460.91;5072677;28;20202;-73
2021/04/25 09:47:59;;;;;;;1.60;1.50;;;;;;;7.48;55.33;101457.16;5072463;28;20194;-73
2021/04/25 09:50:25;;;;;;;1.93;0.67;;;;;;;7.80;55.19;101456.19;5072375;28;20576;-73
2021/04/25 09:52:51;;;;;;;0.20;0.20;;;;;;;8.01;53.75;101455.16;5072548;28;20178;-73
2021/04/25 09:55:24;;;;;;;0.63;0.63;;;;;;;7.84;53.51;101457.31;5072139;28;20699;-73
2021/04/25 09:57:52;;;;;;;0.93;0.80;;;;;;;7.50;52.36;101443.31;5072224;28;20629;-72
2021/04/25 10:00:17;;;;;;;2.37;0.57;;;;;;;7.53;52.50;101450.97;5072131;28;20212;-73
2021/04/25 10:03:00;;;;;;;7.50;2.47;;;;;;;7.74;52.22;101445.31;5069529;28;20178;-73
2021/04/25 10:05:27;;;;;;;1.00;0.90;;;;;;;7.77;53.18;101460.25;5070749;28;20668;-73
2021/04/25 10:07:53;;;;;;;1.00;0.70;;;;;;;7.83;52.94;101442.06;5072277;28;20162;-75
2021/04/25 10:10:19;;;;;;;1.87;1.07;;;;;;;8.00;52.76;101448.09;5072350;28;20634;-73
2021/04/25 10:13:11;;;;;;;2.00;0.50;;;;;;;7.57;49.38;101441.19;5072110;28;20175;-74
2021/04/25 10:15:36;;;;;;;1.10;0.80;;;;;;;7.90;50.15;101445.34;5072136;28;20262;-74
2021/04/25 10:18:02;;;;;;;2.27;1.37;;;;;;;8.18;49.59;101430.41;5072023;28;20292;-74
2021/04/25 10:20:27;;;;;;;0.70;0.50;;;;;;;8.11;49.63;101444.31;5072203;28;20174;-73
2021/04/25 10:22:54;;;;;;;1.10;0.70;;;;;;;8.40;50.44;101446.53;5071436;28;20182;-74
2021/04/25 10:25:35;;;;;;;0.30;0.30;;;;;;;8.13;48.67;101446.75;5071995;28;20182;-73
2021/04/25 10:28:09;;;;;;;0.03;0.00;;;;;;;7.92;50.34;101443.97;5071018;28;20232;-73
2021/04/25 10:30:38;;;;;;;2.27;0.93;;;;;;;7.93;51.66;101425.75;5071917;28;20174;-79
2021/04/25 10:33:04;;;;;;;0.97;0.80;;;;;;;8.26;48.53;101446.22;5071814;28;20171;-76
2021/04/25 10:35:33;;;;;;;1.50;1.40;;;;;;;8.48;47.93;101433.19;5070658;28;20185;-77
2021/04/25 10:37:59;;;;;;;1.50;1.40;;;;;;;8.77;47.82;101446.22;5071478;28;20297;-78
2021/04/25 10:40:29;;;;;;;1.70;1.10;;;;;;;8.89;47.68;101450.31;5071716;28;20661;-72
2021/04/25 10:43:03;;;;;;;1.17;1.07;;;;;;;8.92;47.36;101447.03;5071300;28;20186;-76
2021/04/25 10:45:33;;;;;;;0.70;0.70;;;;;;;8.90;48.10;101443.75;5070444;28;20182;-78
2021/04/25 10:48:17;;;;;;;0.70;0.70;;;;;;;8.67;48.11;101443.50;5071624;28;20183;-78
2021/04/25 10:50:44;;;;;;;2.47;2.27;;;;;;;8.57;48.43;101439.72;5071612;28;20677;-76
2021/04/25 10:53:18;;;;;;;4.80;0.60;;;;;;;8.58;47.16;101449.53;5071543;28;20174;-75
2021/04/25 10:55:45;;;;;;;0.97;0.77;;;;;;;8.40;48.80;101439.19;5071626;28;20179;-76
2021/04/25 10:58:11;;;;;;;1.90;1.73;;;;;;;8.42;48.52;101441.63;5071372;28;20748;-77
2021/04/25 11:00:38;;;;;;;1.27;1.17;;;;;;;8.50;47.70;101444.59;5071536;28;20262;-74
2021/04/25 11:03:09;;;;;;;1.47;1.03;;;;;;;8.35;48.48;101444.59;5071288;28;20199;-78
2021/04/25 11:05:43;;;;;;;4.87;0.80;;;;;;;8.45;48.67;101441.09;5071761;28;20185;-80
2021/04/25 11:08:18;;;;;;;2.40;1.27;;;;;;;8.78;49.46;101443.22;5072287;28;20188;-81
2021/04/25 11:10:55;;;;;;;0.60;0.50;;;;;;;8.56;48.98;101446.25;5071822;28;20181;-79
2021/04/25 11:13:33;;;;;;;2.97;0.80;;;;;;;8.97;47.57;101443.50;5071250;28;20180;-80
2021/04/25 11:16:09;;;;;;;1.13;0.80;;;;;;;8.90;47.01;101438.31;5071184;28;20639;-79
2021/04/25 11:18:47;;;;;;;1.33;1.23;;;;;;;8.94;47.01;101435.84;5071217;28;20572;-80
2021/04/25 11:21:38;;;;;;;1.40;1.30;;;;;;;8.78;46.60;101437.78;5069503;28;20179;-76
2021/04/25 11:24:06;;;;;;;1.47;1.37;;;;;;;8.93;47.55;101437.75;5063245;28;20656;-77
2021/04/25 11:26:37;;;;;;;1.33;1.13;;;;;;;9.22;47.97;101437.13;5070479;28;20171;-76
2021/04/25 11:29:07;;;;;;;1.37;0.90;;;;;;;9.37;48.02;101428.06;5070872;28;20649;-77
2021/04/25 11:34:25;;;;;;;0.50;0.50;;;;;;;9.29;44.62;101426.75;5070929;28;20222;-78